createdAt,value
2022-12-23T00:01:46.559Z,9.74
2022-12-23T00:04:13.126Z,9.83
2022-12-23T00:06:39.758Z,9.76
2022-12-23T00:09:06.329Z,9.66
2022-12-23T00:11:32.805Z,9.78
2022-12-23T00:13:59.404Z,9.77
2022-12-23T00:16:26.099Z,9.80
2022-12-23T00:18:54.144Z,9.72
2022-12-23T00:21:21.274Z,9.47
2022-12-23T00:23:50.298Z,9.70
2022-12-23T00:26:27.891Z,9.23
2022-12-23T00:28:57.815Z,9.66
2022-12-23T00:31:25.312Z,9.65
2022-12-23T00:33:52.942Z,9.43
2022-12-23T00:36:19.476Z,9.63
2022-12-23T00:38:46.729Z,9.58
2022-12-23T00:41:16.001Z,9.63
2022-12-23T00:43:42.572Z,9.63
2022-12-23T00:46:11.937Z,9.44
2022-12-23T00:48:38.741Z,9.62
2022-12-23T00:51:05.514Z,9.55
2022-12-23T00:53:32.090Z,9.60
2022-12-23T00:55:58.723Z,9.15
2022-12-23T00:58:25.650Z,9.57
2022-12-23T01:00:53.750Z,9.53
2022-12-23T01:03:20.347Z,9.55
2022-12-23T01:05:46.949Z,9.59
2022-12-23T01:08:13.643Z,9.11
2022-12-23T01:10:41.124Z,9.53
2022-12-23T01:13:07.735Z,9.53
2022-12-23T01:15:34.388Z,9.51
2022-12-23T01:18:00.947Z,9.53
2022-12-23T01:20:27.461Z,9.34
2022-12-23T01:22:53.975Z,9.33
2022-12-23T01:25:20.793Z,9.38
2022-12-23T01:27:47.354Z,9.50
2022-12-23T01:30:14.087Z,9.44
2022-12-23T01:32:40.650Z,9.53
2022-12-23T01:35:07.805Z,9.48
2022-12-23T01:37:34.406Z,9.67
2022-12-23T01:40:00.995Z,9.49
2022-12-23T01:42:27.474Z,9.55
2022-12-23T01:44:59.323Z,9.53
2022-12-23T01:47:59.450Z,9.51
2022-12-23T01:50:30.259Z,9.56
2022-12-23T01:53:00.359Z,9.54
2022-12-23T01:55:33.057Z,9.58
2022-12-23T01:58:13.122Z,9.56
2022-12-23T02:00:41.412Z,9.61
2022-12-23T02:03:08.508Z,9.56
2022-12-23T02:05:35.997Z,9.55
2022-12-23T02:08:02.709Z,9.36
2022-12-23T02:10:36.907Z,9.57
2022-12-23T02:13:23.544Z,9.44
2022-12-23T02:16:04.537Z,9.53
2022-12-23T02:19:12.577Z,9.62
2022-12-23T02:21:45.164Z,9.65
2022-12-23T02:25:16.561Z,9.70
2022-12-23T02:28:01.796Z,9.56
2022-12-23T02:30:39.450Z,9.60
2022-12-23T02:33:21.239Z,9.67
2022-12-23T02:36:20.727Z,9.65
2022-12-23T02:39:16.774Z,9.61
2022-12-23T02:41:58.851Z,9.53
2022-12-23T02:44:43.725Z,9.60
2022-12-23T02:47:20.332Z,9.56
2022-12-23T02:49:57.626Z,9.68
2022-12-23T02:52:31.511Z,9.40
2022-12-23T02:55:06.966Z,9.58
2022-12-23T02:57:37.543Z,9.53
2022-12-23T03:00:05.608Z,9.05
2022-12-23T03:02:34.718Z,9.62
2022-12-23T03:05:01.426Z,9.79
2022-12-23T03:07:41.265Z,9.67
2022-12-23T03:10:22.657Z,9.62
2022-12-23T03:13:07.697Z,9.55
2022-12-23T03:15:46.752Z,9.61
2022-12-23T03:18:28.939Z,9.33
2022-12-23T03:21:22.586Z,9.43
2022-12-23T03:23:55.654Z,9.42
2022-12-23T03:26:30.150Z,9.38
2022-12-23T03:29:03.109Z,9.47
2022-12-23T03:31:33.323Z,9.40
2022-12-23T03:34:05.934Z,9.44
2022-12-23T03:36:38.273Z,9.43
2022-12-23T03:39:10.523Z,9.31
2022-12-23T03:41:42.267Z,9.38
2022-12-23T03:44:31.090Z,9.43
2022-12-23T03:47:08.089Z,9.38
2022-12-23T03:49:43.055Z,9.26
2022-12-23T03:52:20.851Z,9.34
2022-12-23T03:54:56.731Z,9.33
2022-12-23T03:57:30.256Z,9.32
2022-12-23T03:59:56.999Z,8.88
2022-12-23T04:02:33.183Z,9.36
2022-12-23T04:04:59.627Z,9.37
2022-12-23T04:07:40.316Z,9.00
2022-12-23T04:10:08.383Z,9.01
2022-12-23T04:12:35.649Z,9.30
2022-12-23T04:15:07.437Z,9.47
2022-12-23T04:17:37.358Z,9.25
2022-12-23T04:20:04.913Z,9.27
2022-12-23T04:22:31.533Z,9.27
2022-12-23T04:24:58.334Z,9.39
2022-12-23T04:27:24.830Z,9.53
2022-12-23T04:29:51.513Z,9.32
2022-12-23T04:32:18.000Z,8.80
2022-12-23T04:34:44.562Z,9.30
2022-12-23T04:37:11.473Z,9.12
2022-12-23T04:39:40.669Z,9.31
2022-12-23T04:42:07.215Z,9.36
2022-12-23T04:44:33.714Z,9.31
2022-12-23T04:47:01.056Z,9.29
2022-12-23T04:49:27.599Z,9.37
2022-12-23T04:51:54.053Z,9.29
2022-12-23T04:54:20.722Z,9.25
2022-12-23T04:56:47.203Z,9.21
2022-12-23T04:59:13.823Z,9.25
2022-12-23T05:01:40.950Z,9.30
2022-12-23T05:04:08.515Z,8.81
2022-12-23T05:06:35.814Z,9.16
2022-12-23T05:09:03.439Z,9.06
2022-12-23T05:11:30.174Z,9.03
2022-12-23T05:13:56.889Z,9.20
2022-12-23T05:16:23.479Z,9.33
2022-12-23T05:18:50.216Z,9.02
2022-12-23T05:21:17.724Z,8.96
2022-12-23T05:23:44.353Z,9.44
2022-12-23T05:26:12.085Z,9.29
2022-12-23T05:28:38.613Z,9.05
2022-12-23T05:31:08.107Z,8.98
2022-12-23T05:33:35.564Z,9.19
2022-12-23T05:36:02.792Z,9.36
2022-12-23T05:38:29.721Z,9.12
2022-12-23T05:40:56.579Z,9.22
2022-12-23T05:43:23.683Z,9.34
2022-12-23T05:45:50.760Z,9.34
2022-12-23T05:48:17.463Z,9.38
2022-12-23T05:50:44.263Z,9.24
2022-12-23T05:53:10.935Z,9.21
2022-12-23T05:55:37.501Z,9.27
2022-12-23T05:58:04.123Z,9.27
2022-12-23T06:00:30.619Z,9.20
2022-12-23T06:02:57.591Z,9.24
2022-12-23T06:05:24.277Z,8.99
2022-12-23T06:07:51.164Z,9.21
2022-12-23T06:10:18.120Z,8.81
2022-12-23T06:12:44.602Z,9.07
2022-12-23T06:15:11.755Z,9.14
2022-12-23T06:17:38.382Z,9.25
2022-12-23T06:20:05.495Z,9.09
2022-12-23T06:22:32.091Z,9.19
2022-12-23T06:24:58.565Z,9.04
2022-12-23T06:27:25.322Z,9.27
2022-12-23T06:29:51.933Z,9.24
2022-12-23T06:32:18.804Z,9.27
2022-12-23T06:34:45.373Z,9.13
2022-12-23T06:37:12.095Z,9.19
2022-12-23T06:39:38.777Z,9.28
2022-12-23T06:42:05.488Z,9.29
2022-12-23T06:44:31.963Z,9.40
2022-12-23T06:46:58.448Z,8.88
2022-12-23T06:49:24.946Z,9.35
2022-12-23T06:51:51.463Z,9.24
2022-12-23T06:54:18.082Z,9.30
2022-12-23T06:56:44.632Z,9.31
2022-12-23T06:59:12.138Z,9.38
2022-12-23T07:01:38.683Z,9.33
2022-12-23T07:04:05.445Z,9.36
2022-12-23T07:06:32.118Z,9.23
2022-12-23T07:08:58.700Z,9.19
2022-12-23T07:11:25.331Z,9.31
2022-12-23T07:13:51.830Z,9.38
2022-12-23T07:16:18.483Z,9.31
2022-12-23T07:18:45.096Z,9.32
2022-12-23T07:21:19.998Z,9.12
2022-12-23T07:23:51.231Z,9.30
2022-12-23T07:26:17.767Z,9.32
2022-12-23T07:28:44.294Z,9.19
2022-12-23T07:31:11.162Z,9.01
2022-12-23T07:33:37.813Z,8.69
2022-12-23T07:36:04.761Z,9.14
2022-12-23T07:38:31.207Z,9.27
2022-12-23T07:40:57.850Z,9.15
2022-12-23T07:43:24.419Z,9.17
2022-12-23T07:45:57.348Z,9.07
2022-12-23T07:48:26.380Z,9.13
2022-12-23T07:50:52.923Z,9.25
2022-12-23T07:53:19.376Z,8.90
2022-12-23T07:55:47.259Z,9.15
2022-12-23T07:58:15.709Z,9.20
2022-12-23T08:00:42.370Z,9.07
2022-12-23T08:03:11.551Z,9.21
2022-12-23T08:05:38.074Z,9.04
2022-12-23T08:08:05.178Z,9.16
2022-12-23T08:10:31.696Z,8.74
2022-12-23T08:13:00.748Z,9.07
2022-12-23T08:15:27.259Z,9.04
2022-12-23T08:17:55.601Z,9.08
2022-12-23T08:20:22.297Z,9.08
2022-12-23T08:22:48.790Z,9.04
2022-12-23T08:25:15.287Z,9.03
2022-12-23T08:27:42.036Z,9.16
2022-12-23T08:30:09.295Z,9.05
2022-12-23T08:32:35.749Z,9.06
2022-12-23T08:35:02.289Z,8.96
2022-12-23T08:37:28.812Z,8.96
2022-12-23T08:39:55.480Z,8.56
2022-12-23T08:42:22.154Z,8.72
2022-12-23T08:44:48.737Z,8.90
2022-12-23T08:47:15.292Z,8.94
2022-12-23T08:49:42.067Z,8.83
2022-12-23T08:52:08.547Z,8.95
2022-12-23T08:54:35.185Z,8.82
2022-12-23T08:57:01.654Z,8.93
2022-12-23T08:59:28.353Z,8.94
2022-12-23T09:01:54.911Z,8.57
2022-12-23T09:04:21.411Z,8.93
2022-12-23T09:06:47.996Z,8.89
2022-12-23T09:09:15.697Z,8.55
2022-12-23T09:11:45.459Z,8.59
2022-12-23T09:14:12.121Z,8.70
2022-12-23T09:16:39.565Z,8.85
2022-12-23T09:19:06.180Z,8.85
2022-12-23T09:21:32.740Z,8.79
2022-12-23T09:23:59.285Z,8.83
2022-12-23T09:26:28.788Z,8.80
2022-12-23T09:28:56.600Z,8.92
2022-12-23T09:31:24.112Z,8.92
2022-12-23T09:33:52.679Z,8.93
2022-12-23T09:36:20.220Z,9.00
2022-12-23T09:38:46.955Z,8.92
2022-12-23T09:41:33.704Z,8.85
2022-12-23T09:44:02.969Z,9.11
2022-12-23T09:46:32.497Z,8.99
2022-12-23T09:49:04.697Z,8.97
2022-12-23T09:51:32.804Z,9.05
2022-12-23T09:54:16.561Z,8.81
2022-12-23T09:57:03.761Z,9.03
2022-12-23T09:59:51.063Z,8.98
2022-12-23T10:02:42.833Z,9.03
2022-12-23T10:05:40.719Z,9.04
2022-12-23T10:08:15.972Z,8.65
2022-12-23T10:10:49.675Z,9.04
2022-12-23T10:13:38.013Z,8.97
2022-12-23T10:16:08.382Z,8.68
2022-12-23T10:19:06.626Z,9.11
2022-12-23T10:22:15.136Z,9.00
2022-12-23T10:24:44.695Z,8.94
2022-12-23T10:27:24.868Z,8.95
2022-12-23T10:29:51.608Z,8.90
2022-12-23T10:32:43.866Z,9.03
2022-12-23T10:35:41.393Z,9.07
2022-12-23T10:38:26.470Z,9.01
2022-12-23T10:40:57.443Z,9.09
2022-12-23T10:43:41.428Z,9.04
2022-12-23T10:46:24.845Z,9.03
2022-12-23T10:49:11.442Z,9.16
2022-12-23T10:51:55.236Z,8.90
2022-12-23T10:54:30.837Z,9.27
2022-12-23T10:56:57.339Z,9.28
2022-12-23T10:59:29.604Z,9.06
2022-12-23T11:02:24.861Z,9.16
2022-12-23T11:04:51.721Z,9.10
2022-12-23T11:10:18.508Z,9.10
2022-12-23T11:12:48.115Z,9.18
2022-12-23T11:15:30.701Z,8.96
2022-12-23T11:18:12.568Z,9.16
2022-12-23T11:20:41.457Z,8.95
2022-12-23T11:23:30.979Z,8.92
2022-12-23T11:26:06.433Z,8.47
2022-12-23T11:28:35.365Z,8.97
2022-12-23T11:31:05.608Z,8.99
2022-12-23T11:33:35.679Z,9.02
2022-12-23T11:36:14.627Z,8.52
2022-12-23T11:39:10.030Z,9.05
2022-12-23T11:41:40.250Z,8.56
2022-12-23T11:44:39.661Z,9.01
2022-12-23T11:47:40.807Z,9.12
2022-12-23T11:50:27.808Z,8.72
2022-12-23T11:53:14.469Z,8.98
2022-12-23T11:55:59.681Z,8.96
2022-12-23T11:58:28.754Z,8.88
2022-12-23T12:01:00.689Z,8.95
2022-12-23T12:03:47.210Z,8.81
2022-12-23T12:06:16.022Z,8.92
2022-12-23T12:08:42.984Z,9.13
2022-12-23T12:11:17.319Z,9.08
2022-12-23T12:13:48.196Z,9.17
2022-12-23T12:16:43.518Z,9.05
2022-12-23T12:19:33.076Z,9.00
2022-12-23T12:22:05.936Z,8.93
2022-12-23T12:24:40.971Z,9.01
2022-12-23T12:27:10.970Z,9.11
2022-12-23T12:29:43.592Z,9.18
2022-12-23T12:32:19.164Z,9.25
2022-12-23T12:34:54.759Z,9.04
2022-12-23T12:37:43.424Z,9.10
2022-12-23T12:40:18.923Z,9.01
2022-12-23T12:42:54.952Z,9.11
2022-12-23T12:45:24.863Z,9.09
2022-12-23T12:48:28.588Z,9.12
2022-12-23T12:51:26.539Z,9.13
2022-12-23T12:53:59.575Z,9.36
2022-12-23T12:56:45.417Z,9.00
2022-12-23T12:59:17.070Z,9.06
2022-12-23T13:01:43.721Z,9.25
2022-12-23T13:04:31.579Z,9.12
2022-12-23T13:07:13.448Z,9.03
2022-12-23T13:09:51.728Z,9.04
2022-12-23T13:12:34.755Z,8.94
2022-12-23T13:15:10.938Z,8.56
2022-12-23T13:18:03.871Z,9.19
2022-12-23T13:20:42.945Z,8.78
2022-12-23T13:23:51.126Z,9.18
2022-12-23T13:26:36.497Z,9.08
2022-12-23T13:29:58.581Z,9.20
2022-12-23T13:32:43.185Z,9.21
2022-12-23T13:35:27.804Z,9.14
2022-12-23T13:38:10.582Z,8.72
2022-12-23T13:41:08.254Z,9.25
2022-12-23T13:43:58.519Z,8.86
2022-12-23T13:46:36.718Z,9.26
2022-12-23T13:49:21.634Z,9.24
2022-12-23T13:52:29.249Z,9.29
2022-12-23T13:54:58.486Z,9.33
2022-12-23T13:58:17.588Z,9.28
2022-12-23T14:00:44.400Z,9.21
2022-12-23T14:03:10.865Z,9.27
2022-12-23T14:05:43.111Z,9.52
2022-12-23T14:08:18.513Z,9.39
2022-12-23T14:11:09.889Z,8.81
2022-12-23T14:13:45.311Z,9.41
2022-12-23T14:16:42.371Z,8.97
2022-12-23T14:19:43.713Z,9.40
2022-12-23T14:22:42.329Z,9.15
2022-12-23T14:25:11.775Z,9.57
2022-12-23T14:28:31.570Z,9.59
2022-12-23T14:30:58.493Z,9.75
2022-12-23T14:33:29.639Z,9.77
2022-12-23T14:36:16.945Z,9.80
2022-12-23T14:39:12.182Z,9.86
2022-12-23T14:41:48.279Z,9.46
2022-12-23T14:44:41.773Z,9.91
2022-12-23T14:47:31.982Z,10.07
2022-12-23T14:50:38.458Z,10.14
2022-12-23T14:53:22.220Z,9.69
2022-12-23T14:55:50.655Z,9.83
2022-12-23T14:58:17.286Z,10.37
2022-12-23T15:00:50.260Z,10.33
2022-12-23T15:03:17.907Z,10.42
2022-12-23T15:05:44.965Z,10.53
2022-12-23T15:08:41.103Z,10.63
2022-12-23T15:11:16.124Z,10.72
2022-12-23T15:13:43.089Z,10.79
2022-12-23T15:16:16.376Z,10.77
2022-12-23T15:18:56.519Z,10.82
2022-12-23T15:21:31.670Z,10.33
2022-12-23T15:23:58.388Z,10.49
2022-12-23T15:26:28.093Z,10.92
2022-12-23T15:28:55.135Z,10.92
2022-12-23T15:31:41.154Z,10.82
2022-12-23T15:34:17.756Z,10.72
2022-12-23T15:36:45.810Z,10.49
2022-12-23T15:39:34.213Z,10.81
2022-12-23T15:42:01.354Z,10.95
2022-12-23T15:44:37.315Z,10.96
2022-12-23T15:47:26.552Z,10.42
2022-12-23T15:49:53.328Z,10.82
2022-12-23T15:52:20.764Z,10.80
2022-12-23T15:55:14.249Z,10.88
2022-12-23T15:57:50.105Z,10.88
2022-12-23T16:00:26.509Z,10.86
2022-12-23T16:03:01.554Z,10.92
2022-12-23T16:05:33.050Z,10.90
2022-12-23T16:08:08.503Z,10.84
2022-12-23T16:10:35.235Z,10.92
2022-12-23T16:13:02.015Z,10.89
2022-12-23T16:15:31.324Z,10.90
2022-12-23T16:18:21.266Z,10.92
2022-12-23T16:21:01.237Z,10.37
2022-12-23T16:23:34.552Z,10.92
2022-12-23T16:26:02.354Z,10.37
2022-12-23T16:28:42.267Z,10.86
2022-12-23T16:31:10.466Z,10.80
2022-12-23T16:33:58.492Z,10.33
2022-12-23T16:36:25.224Z,10.72
2022-12-23T16:39:14.653Z,10.72
2022-12-23T16:41:41.190Z,10.55
2022-12-23T16:44:07.631Z,10.71
2022-12-23T16:46:39.906Z,10.59
2022-12-23T16:49:07.544Z,10.48
2022-12-23T16:51:34.969Z,10.62
2022-12-23T16:54:01.579Z,10.61
2022-12-23T16:56:36.853Z,10.56
2022-12-23T16:59:04.583Z,10.64
2022-12-23T17:01:34.554Z,10.61
2022-12-23T17:04:01.194Z,10.45
2022-12-23T17:06:27.831Z,10.62
2022-12-23T17:08:54.668Z,10.18
2022-12-23T17:11:25.270Z,10.65
2022-12-23T17:13:55.322Z,10.65
2022-12-23T17:16:25.620Z,10.25
2022-12-23T17:18:53.244Z,10.60
2022-12-23T17:21:23.453Z,10.62
2022-12-23T17:23:55.450Z,10.52
2022-12-23T17:26:22.084Z,10.48
2022-12-23T17:28:49.489Z,10.45
2022-12-23T17:31:26.245Z,10.44
2022-12-23T17:33:53.672Z,10.47
2022-12-23T17:36:20.508Z,10.47
2022-12-23T17:38:47.237Z,10.44
2022-12-23T17:41:28.845Z,10.48
2022-12-23T17:43:55.534Z,10.39
2022-12-23T17:46:22.557Z,10.34
2022-12-23T17:48:49.164Z,10.44
2022-12-23T17:51:17.788Z,10.39
2022-12-23T17:53:45.717Z,10.10
2022-12-23T17:56:16.517Z,10.54
2022-12-23T17:58:51.269Z,10.09
2022-12-23T18:01:24.588Z,10.59
2022-12-23T18:03:51.478Z,10.62
2022-12-23T18:06:20.771Z,10.66
2022-12-23T18:08:47.547Z,10.60
2022-12-23T18:11:39.015Z,10.61
2022-12-23T18:14:06.940Z,10.67
2022-12-23T18:16:33.564Z,10.23
2022-12-23T18:19:00.061Z,10.51
2022-12-23T18:21:29.119Z,10.69
2022-12-23T18:23:58.417Z,10.69
2022-12-23T18:26:25.204Z,10.13
2022-12-23T18:28:52.192Z,10.61
2022-12-23T18:31:22.341Z,10.66
2022-12-23T18:33:48.897Z,10.66
2022-12-23T18:36:24.810Z,10.34
2022-12-23T18:38:52.314Z,10.18
2022-12-23T18:41:19.692Z,10.62
2022-12-23T18:43:46.243Z,10.67
2022-12-23T18:46:12.861Z,10.72
2022-12-23T18:48:39.406Z,10.71
2022-12-23T18:51:06.178Z,10.68
2022-12-23T18:53:32.758Z,10.69
2022-12-23T18:55:59.348Z,10.67
2022-12-23T18:58:25.819Z,10.23
2022-12-23T19:00:52.622Z,10.62
2022-12-23T19:03:28.713Z,10.31
2022-12-23T19:05:56.825Z,10.54
2022-12-23T19:08:27.107Z,10.47
2022-12-23T19:10:54.952Z,10.16
2022-12-23T19:13:21.782Z,10.02
2022-12-23T19:15:48.471Z,10.41
2022-12-23T19:18:17.275Z,10.55
2022-12-23T19:20:45.631Z,10.39
2022-12-23T19:23:12.940Z,10.42
2022-12-23T19:25:52.675Z,10.38
2022-12-23T19:28:22.023Z,9.96
2022-12-23T19:30:48.886Z,10.16
2022-12-23T19:33:15.633Z,10.29
2022-12-23T19:35:42.816Z,10.23
2022-12-23T19:38:09.535Z,10.22
2022-12-23T19:40:36.019Z,9.86
2022-12-23T19:43:02.831Z,10.25
2022-12-23T19:45:29.426Z,10.26
2022-12-23T19:47:55.946Z,10.34
2022-12-23T19:50:22.728Z,10.26
2022-12-23T19:52:49.349Z,10.22
2022-12-23T19:55:16.697Z,10.16
2022-12-23T19:57:43.320Z,10.33
2022-12-23T20:00:10.315Z,10.13
2022-12-23T20:02:36.792Z,10.30
2022-12-23T20:05:04.152Z,9.95
2022-12-23T20:07:30.616Z,10.38
2022-12-23T20:09:57.252Z,10.26
2022-12-23T20:12:23.974Z,10.39
2022-12-23T20:14:50.529Z,10.28
2022-12-23T20:17:17.070Z,10.30
2022-12-23T20:19:46.144Z,10.29
2022-12-23T20:22:13.179Z,10.27
2022-12-23T20:24:41.107Z,10.12
2022-12-23T20:27:11.331Z,10.30
2022-12-23T20:29:38.628Z,10.12
2022-12-23T20:32:05.482Z,10.25
2022-12-23T20:34:38.343Z,10.23
2022-12-23T20:37:06.341Z,10.25
2022-12-23T20:39:32.969Z,10.18
2022-12-23T20:41:59.724Z,10.36
2022-12-23T20:44:35.744Z,9.90
2022-12-23T20:47:04.309Z,10.35
2022-12-23T20:49:31.194Z,10.35
2022-12-23T20:51:57.825Z,10.38
2022-12-23T20:54:31.622Z,10.35
2022-12-23T20:56:59.563Z,10.32
2022-12-23T20:59:26.176Z,10.04
2022-12-23T21:01:52.708Z,10.28
2022-12-23T21:04:19.473Z,10.31
2022-12-23T21:06:46.304Z,10.13
2022-12-23T21:09:14.578Z,10.39
2022-12-23T21:11:46.363Z,10.36
2022-12-23T21:14:14.660Z,10.29
2022-12-23T21:16:42.021Z,10.28
2022-12-23T21:19:13.810Z,10.35
2022-12-23T21:21:40.276Z,10.22
2022-12-23T21:24:06.949Z,10.38
2022-12-23T21:26:34.519Z,10.34
2022-12-23T21:29:03.373Z,10.25
2022-12-23T21:31:31.484Z,10.33
2022-12-23T21:33:58.811Z,9.81
2022-12-23T21:36:27.840Z,10.22
2022-12-23T21:38:54.577Z,10.16
2022-12-23T21:41:26.852Z,10.22
2022-12-23T21:43:55.622Z,10.19
2022-12-23T21:46:23.083Z,10.20
2022-12-23T21:48:50.281Z,10.18
2022-12-23T21:51:22.466Z,10.13
2022-12-23T21:53:51.283Z,10.23
2022-12-23T21:56:20.673Z,9.95
2022-12-23T21:58:47.614Z,10.16
2022-12-23T22:01:16.755Z,10.01
2022-12-23T22:03:43.999Z,9.88
2022-12-23T22:06:16.191Z,10.08
2022-12-23T22:08:43.395Z,9.87
2022-12-23T22:11:13.069Z,9.79
2022-12-23T22:13:40.459Z,10.04
2022-12-23T22:16:12.897Z,10.00
2022-12-23T22:18:40.788Z,9.67
2022-12-23T22:21:12.840Z,9.88
2022-12-23T22:23:40.225Z,9.94
2022-12-23T22:26:08.275Z,9.97
2022-12-23T22:28:36.956Z,9.56
2022-12-23T22:31:42.015Z,9.67
2022-12-23T22:34:13.181Z,9.90
2022-12-23T22:36:39.736Z,9.77
2022-12-23T22:39:07.738Z,9.89
2022-12-23T22:41:34.985Z,9.81
2022-12-23T22:44:01.521Z,9.70
2022-12-23T22:46:28.514Z,9.75
2022-12-23T22:48:55.324Z,9.63
2022-12-23T22:51:27.281Z,9.77
2022-12-23T22:53:54.892Z,9.75
2022-12-23T22:56:23.189Z,9.28
2022-12-23T22:58:50.737Z,9.21
2022-12-23T23:01:22.072Z,9.67
2022-12-23T23:03:49.985Z,9.57
2022-12-23T23:06:17.259Z,9.54
2022-12-23T23:08:43.775Z,9.09
2022-12-23T23:11:11.892Z,9.22
2022-12-23T23:13:38.608Z,9.48
2022-12-23T23:16:05.910Z,9.49
2022-12-23T23:18:32.850Z,9.39
2022-12-23T23:21:00.104Z,9.47
2022-12-23T23:23:27.094Z,9.48
2022-12-23T23:25:53.911Z,9.40
2022-12-23T23:28:20.582Z,9.43
2022-12-23T23:30:47.206Z,9.52
2022-12-23T23:33:14.163Z,9.20
2022-12-23T23:35:40.913Z,9.48
2022-12-23T23:38:08.305Z,9.62
2022-12-23T23:40:35.336Z,9.56
2022-12-23T23:43:01.978Z,9.51
2022-12-23T23:45:28.604Z,9.45
2022-12-23T23:47:55.626Z,9.08
2022-12-23T23:50:22.655Z,9.08
2022-12-23T23:52:49.147Z,9.42
2022-12-23T23:55:16.297Z,9.25
2022-12-23T23:57:42.761Z,9.29
